Crossville Memorial Whitson Field
KCSV : now visible

Airfield :











YOU CAN JOIN US ON...

 
LOGIN :

Register | Disclaimer

   EN    FR    IT 

 









Legend :    VFR   Marginal VFR   IFR   Intensive IFR   Very Intensive IFR
Visi :
Ceiling :
>= 8 km
>= 3000ft
5 to 8 km
1000 to 3000 ft
1500m to 5 km
500 to 1000 ft
800 to 1500m
200 to 500 ft
< 800m
< 200 ft
Symbols :   Thunderstorms  Fog  Heavy snow  Heavy precipitations  Wind > 20 kt






- Airport Elevation : 1881 ft


KCSV - Crossville Memorial Whitson Field

CURRENT METAR :
  • 260753Z AUTO 29005KT 10SM OVC019 M01/M04 A3006 RMK AO2 SLP192 T10061044

EXPIRED METARs :
  • 260653Z AUTO 28005KT 10SM OVC018 M01/M04 A3007 RMK AO2 SLP193 T10061039
  • 260553Z AUTO 29008KT 10SM OVC017 M01/M04 A3008 RMK AO2 SLP195 T10061039 10006 21006 400171006 53002

TAF KCSV
Valid from the 26 at 06:00 until the 27 at 06:00 UTC


260627Z 2606/2706 29008KT P6SM OVC018
FM260800 28005KT P6SM SKC
FM261200 26005KT P6SM BKN015
FM261800 23005KT P6SM VCSH OVC040
FM270400 23005KT 6SM -SHRA OVC019



MET'MAP, your aeronautical weather chart ! - Copyright ORBIFLY December 2007 - Disclaimer

ORBIFLY MET'MAP TEAM :

Programming & Development : Alexandra Zaïnal
Concept & original design : Baudouin d'Aumeries
Assistance for programming : Marc-Olivier Méhu
Technical & hardware support : Manuel Goepfert

Contact : metmap@orbifly.com




SOURCES & CREDITS :

   NOAA       Earth
Advisory